Time;durP1;ratioP1;P1;durP2;ratioP2;P2;SDS_P1;SDS_P2;PMS_P1;PMS_P2;Temp;Humidity;BMP_temperature;BMP_pressure;BME280_temperature;BME280_humidity;BME280_pressure;Samples;Min_cycle;Max_cycle;Signal;HPM_P1;HPM_P2
2022/05/17 00:00:45;;;;;;;;;5.33;5.33;;;;;17.40;62.60;101927.66;5062260;28;9013;-66
2022/05/17 00:03:11;;;;;;;;;7.00;5.33;;;;;17.36;62.70;101926.41;5069951;28;9006;-67
2022/05/17 00:05:38;;;;;;;;;4.00;4.00;;;;;17.35;62.69;101926.63;5069845;28;9009;-67
2022/05/17 00:08:04;;;;;;;;;4.00;4.00;;;;;17.33;62.91;101931.44;5055688;28;9080;-66
2022/05/17 00:10:31;;;;;;;;;3.00;3.00;;;;;17.34;62.85;101927.66;5068059;28;8973;-67
2022/05/17 00:12:57;;;;;;;;;4.67;4.67;;;;;17.31;62.71;101934.38;5059904;28;9029;-66
2022/05/17 00:15:24;;;;;;;;;9.33;5.00;;;;;17.28;62.78;101930.19;5064944;28;9059;-66
2022/05/17 00:17:53;;;;;;;;;7.00;5.67;;;;;17.28;63.04;101934.78;5051057;28;9227;-67
2022/05/17 00:20:21;;;;;;;;;4.00;4.00;;;;;17.27;62.92;101933.97;5059442;28;9150;-66
2022/05/17 00:22:48;;;;;;;;;4.67;4.67;;;;;17.24;62.72;101925.38;5052977;28;9220;-67
2022/05/17 00:25:17;;;;;;;;;5.33;5.33;;;;;17.23;63.17;101923.72;5050359;28;9157;-67
2022/05/17 00:27:45;;;;;;;;;4.67;3.67;;;;;17.22;63.24;101925.59;5056206;28;9782;-66
2022/05/17 00:30:13;;;;;;;;;11.00;9.33;;;;;17.20;62.75;101926.84;5056636;28;9149;-67
2022/05/17 00:32:39;;;;;;;;;6.67;6.67;;;;;17.18;63.24;101926.25;5081887;28;9153;-67
2022/05/17 00:35:08;;;;;;;;;3.00;3.00;;;;;17.14;63.02;101920.38;5070285;28;9544;-67
2022/05/17 00:37:34;;;;;;;;;6.33;6.33;;;;;17.13;63.05;101921.41;5068783;28;9078;-67
2022/05/17 00:40:03;;;;;;;;;3.00;3.00;;;;;17.12;63.45;101927.06;5066473;28;9072;-66
2022/05/17 00:42:29;;;;;;;;;6.00;3.67;;;;;17.11;63.12;101931.69;5063929;28;8978;-66
2022/05/17 00:44:56;;;;;;;;;5.67;5.67;;;;;17.10;63.18;101921.84;5061765;28;9317;-66
2022/05/17 00:47:29;;;;;;;;;4.33;4.33;;;;;17.09;63.29;101920.16;5060274;28;9774;-67
2022/05/17 00:50:02;;;;;;;;;5.67;5.67;;;;;17.08;63.05;101923.94;5068086;28;9156;-67
2022/05/17 00:52:36;;;;;;;;;7.67;3.00;;;;;17.06;62.94;101926.03;5060273;28;9313;-66
2022/05/17 00:55:09;;;;;;;;;6.00;3.00;;;;;17.03;63.39;101919.13;5070004;28;9040;-67
2022/05/17 00:57:55;;;;;;;;;6.33;5.00;;;;;17.02;63.06;101927.50;5068558;28;9029;-67
2022/05/17 01:00:24;;;;;;;;;5.00;3.00;;;;;16.98;63.50;101927.09;5062157;28;9137;-66
2022/05/17 01:02:59;;;;;;;;;6.00;6.00;;;;;16.94;63.56;101928.56;5056908;28;9897;-67
2022/05/17 01:05:28;;;;;;;;;4.33;3.67;;;;;16.94;63.56;101930.44;5069553;28;9154;-68
2022/05/17 01:07:59;;;;;;;;;6.00;6.00;;;;;16.91;63.93;101934.41;5066962;28;9279;-67
2022/05/17 01:10:27;;;;;;;;;6.67;6.67;;;;;16.90;63.43;101934.63;5057655;28;9227;-67
2022/05/17 01:15:41;;;;;;;;;6.00;4.00;;;;;16.86;63.89;101933.38;5070886;28;9223;-66
2022/05/17 01:18:09;;;;;;;;;7.00;4.00;;;;;16.86;63.75;101942.38;5064836;28;9158;-66
2022/05/17 01:20:36;;;;;;;;;5.00;4.00;;;;;16.85;63.74;101939.84;5062053;28;9911;-66
2022/05/17 01:23:03;;;;;;;;;6.00;4.67;;;;;16.82;63.55;101937.56;5064968;28;9162;-66
2022/05/17 01:25:30;;;;;;;;;7.00;7.00;;;;;16.79;63.93;101930.66;5072392;28;8984;-67
2022/05/17 01:28:13;;;;;;;;;3.00;2.33;;;;;16.78;64.00;101931.69;5072131;28;9142;-68
2022/05/17 01:30:40;;;;;;;;;10.00;7.00;;;;;16.74;63.83;101935.88;5063415;28;9142;-66
2022/05/17 01:33:12;;;;;;;;;5.00;5.00;;;;;16.72;64.17;101930.59;5064509;28;9154;-68
2022/05/17 01:35:38;;;;;;;;;4.33;4.33;;;;;16.71;64.38;101938.97;5072913;28;9135;-67
2022/05/17 01:38:05;;;;;;;;;5.33;5.33;;;;;16.70;64.37;101942.75;5072742;28;9070;-66
2022/05/17 01:40:32;;;;;;;;;6.00;5.33;;;;;16.67;64.31;101944.00;5071606;28;9208;-68
2022/05/17 01:42:58;;;;;;;;;5.00;5.00;;;;;16.65;64.14;101945.22;5066656;28;9146;-66
2022/05/17 01:45:25;;;;;;;;;6.00;6.00;;;;;16.63;64.23;101945.44;5060816;28;9304;-66
2022/05/17 01:47:52;;;;;;;;;6.67;5.67;;;;;16.60;64.33;101940.41;5070289;28;9234;-66
2022/05/17 01:50:18;;;;;;;;;7.00;6.33;;;;;16.56;64.61;101942.72;5071963;28;9226;-66
2022/05/17 01:52:46;;;;;;;;;7.00;6.33;;;;;16.54;64.47;101933.09;5057576;28;9212;-66
2022/05/17 01:55:13;;;;;;;;;6.67;6.67;;;;;16.54;64.73;101935.81;5072925;28;9938;-66
2022/05/17 01:57:40;;;;;;;;;6.00;6.00;;;;;16.51;64.67;101938.94;5071474;28;9373;-66
2022/05/17 02:00:11;;;;;;;;;5.67;5.00;;;;;16.49;64.46;101930.19;5062546;28;9937;-66
2022/05/17 02:02:37;;;;;;;;;4.67;4.67;;;;;16.48;64.84;101923.03;5061914;28;9960;-66
2022/05/17 02:05:05;;;;;;;;;11.00;8.67;;;;;16.45;64.66;101937.06;5064030;28;9893;-66
2022/05/17 02:07:32;;;;;;;;;6.67;5.67;;;;;16.42;64.64;101929.31;5058138;28;9290;-66
2022/05/17 02:09:58;;;;;;;;;6.67;6.33;;;;;16.39;64.68;101924.28;5052649;28;10009;-66
2022/05/17 02:12:25;;;;;;;;;6.00;6.00;;;;;16.34;64.68;101924.91;5066541;28;9947;-66
2022/05/17 02:14:52;;;;;;;;;7.00;6.67;;;;;16.32;64.82;101941.41;5067414;28;9223;-66
2022/05/17 02:17:19;;;;;;;;;11.25;6.75;;;;;16.29;64.90;101939.13;5058200;28;9316;-66
2022/05/17 02:19:45;;;;;;;;;6.00;6.00;;;;;16.26;64.98;101947.69;5069331;28;9444;-66
2022/05/17 02:22:11;;;;;;;;;7.67;6.00;;;;;16.23;64.77;101948.09;5064433;28;9531;-67
2022/05/17 02:24:38;;;;;;;;;7.33;6.00;;;;;16.22;65.14;101945.59;5071226;28;9367;-65
2022/05/17 02:27:05;;;;;;;;;9.00;6.00;;;;;16.19;64.76;101956.84;5063284;28;9303;-66
2022/05/17 02:29:31;;;;;;;;;6.33;5.67;;;;;16.17;64.88;101962.50;5070500;28;9377;-65
2022/05/17 02:31:58;;;;;;;;;9.67;9.00;;;;;16.17;65.28;101965.22;5063551;28;9289;-66
2022/05/17 02:34:25;;;;;;;;;5.33;3.00;;;;;16.16;65.30;101966.22;5065199;28;9395;-65
2022/05/17 02:36:52;;;;;;;;;7.00;7.00;;;;;16.13;65.25;101961.22;5070771;28;9959;-67
2022/05/17 02:39:18;;;;;;;;;6.33;6.33;;;;;16.14;65.03;101971.03;5064285;28;10046;-68
2022/05/17 02:41:45;;;;;;;;;4.67;4.67;;;;;16.13;65.07;101968.53;5067724;28;9323;-68
2022/05/17 02:44:11;;;;;;;;;2.67;2.67;;;;;16.12;65.11;101964.13;5071324;28;9232;-67
2022/05/17 02:46:38;;;;;;;;;5.33;5.33;;;;;16.09;65.17;101965.41;5071639;28;9104;-67
2022/05/17 02:49:07;;;;;;;;;6.33;6.33;;;;;16.06;65.52;101969.34;5067806;28;9161;-67
2022/05/17 02:51:34;;;;;;;;;7.00;7.00;;;;;16.05;65.45;101967.69;5060090;28;9287;-67
2022/05/17 02:54:01;;;;;;;;;7.67;6.67;;;;;16.04;65.64;101966.00;5066190;28;9304;-67
2022/05/17 02:56:27;;;;;;;;;6.00;5.67;;;;;16.03;65.54;101964.31;5059588;28;9196;-68
2022/05/17 02:58:57;;;;;;;;;3.67;3.67;;;;;16.04;65.83;101965.16;5054249;28;9239;-66
2022/05/17 03:01:23;;;;;;;;;7.00;6.33;;;;;16.03;65.79;101968.91;5064622;28;9215;-66
2022/05/17 03:03:50;;;;;;;;;4.33;3.00;;;;;16.02;65.69;101962.63;5068220;28;9319;-67
2022/05/17 03:06:16;;;;;;;;;6.00;5.33;;;;;16.02;65.75;101967.25;5071198;28;9365;-65
2022/05/17 03:08:43;;;;;;;;;7.00;5.67;;;;;16.03;66.09;101966.19;5069882;28;9281;-65
2022/05/17 03:11:09;;;;;;;;;5.00;5.00;;;;;16.04;66.04;101967.84;5063109;28;9358;-65
2022/05/17 03:13:36;;;;;;;;;4.33;4.00;;;;;16.04;66.12;101976.00;5060483;28;9215;-66
2022/05/17 03:16:04;;;;;;;;;3.00;3.00;;;;;16.03;65.86;101967.03;5070935;28;9247;-66
2022/05/17 03:18:36;;;;;;;;;6.00;4.00;;;;;16.02;65.99;101972.66;5070733;28;9229;-66
2022/05/17 03:21:03;;;;;;;;;6.00;6.00;;;;;16.02;65.97;101968.06;5061470;28;9184;-66
2022/05/17 03:23:29;;;;;;;;;6.00;6.00;;;;;16.02;65.81;101965.34;5062352;28;9425;-66
2022/05/17 03:25:56;;;;;;;;;4.00;4.00;;;;;16.05;66.00;101969.56;5060069;28;9316;-66
2022/05/17 03:28:23;;;;;;;;;4.00;3.00;;;;;16.05;66.23;101973.09;5070382;28;9304;-66
2022/05/17 03:30:49;;;;;;;;;7.67;5.67;;;;;16.07;66.14;101981.03;5061420;28;9223;-66
2022/05/17 03:33:16;;;;;;;;;5.00;5.00;;;;;16.07;66.00;101975.59;5057398;28;9159;-66
2022/05/17 03:35:43;;;;;;;;;2.33;2.33;;;;;16.07;66.12;101975.59;5067868;28;9176;-66
2022/05/17 03:38:09;;;;;;;;;4.33;4.33;;;;;16.08;66.14;101971.84;5064660;28;9158;-65
2022/05/17 03:40:36;;;;;;;;;5.00;3.00;;;;;16.08;66.09;101974.56;5062554;28;9162;-66
2022/05/17 03:43:04;;;;;;;;;5.00;5.00;;;;;16.10;66.32;101977.09;5062145;28;9235;-66
2022/05/17 03:45:30;;;;;;;;;3.33;3.33;;;;;16.13;66.21;101980.25;5070378;28;9213;-66
2022/05/17 03:47:57;;;;;;;;;5.00;3.67;;;;;16.15;66.00;101977.31;5070380;28;9136;-66
2022/05/17 03:50:23;;;;;;;;;7.00;5.33;;;;;16.14;65.83;101975.66;5066514;28;9143;-66
2022/05/17 03:52:50;;;;;;;;;3.67;3.00;;;;;16.15;65.86;101980.88;5062179;28;9390;-68
2022/05/17 03:55:47;;;;;;;;;6.00;4.00;;;;;16.14;65.95;101981.91;5065142;28;9287;-66
2022/05/17 03:58:51;;;;;;;;;7.33;4.33;;;;;16.14;65.88;101971.03;5064020;28;9273;-66
2022/05/17 04:01:36;;;;;;;;;6.00;3.00;;;;;16.14;66.05;101981.09;5061949;28;9310;-67
2022/05/17 04:04:02;;;;;;;;;6.00;3.00;;;;;16.18;66.05;101979.63;5069640;28;9316;-66
2022/05/17 04:06:29;;;;;;;;;3.00;3.00;;;;;16.20;66.17;101970.22;5069275;28;9160;-66
2022/05/17 04:08:55;;;;;;;;;4.67;3.00;;;;;16.22;66.01;101957.28;5061874;28;9054;-66
2022/05/17 04:11:22;;;;;;;;;8.00;4.67;;;;;16.25;65.97;101961.47;5064195;28;9207;-66
2022/05/17 04:13:48;;;;;;;;;5.00;5.00;;;;;16.27;65.90;101972.97;5067565;28;9361;-66
2022/05/17 04:16:15;;;;;;;;;2.00;2.00;;;;;16.28;66.14;101978.19;5085657;22;9098;-67
2022/05/17 04:18:41;;;;;;;;;1.33;1.33;;;;;16.31;65.89;101991.38;5041599;28;8984;-66
2022/05/17 04:21:08;;;;;;;;;3.00;2.33;;;;;16.34;65.89;101989.31;5048699;28;9232;-65
2022/05/17 04:23:37;;;;;;;;;3.00;3.00;;;;;16.36;65.82;101979.88;5042149;28;9067;-67
2022/05/17 04:26:04;;;;;;;;;2.67;1.00;;;;;16.40;65.82;101985.75;5038926;28;9399;-66
2022/05/17 04:28:31;;;;;;;;;2.00;2.00;;;;;16.41;65.80;101993.72;5030061;28;9097;-63
2022/05/17 04:30:57;;;;;;;;;2.33;1.00;;;;;16.44;65.52;101996.00;5029812;28;9250;-65
2022/05/17 04:33:24;;;;;;;;;3.00;2.00;;;;;16.43;65.48;101994.34;5030411;28;9034;-65
2022/05/17 04:35:51;;;;;;;;;2.00;2.00;;;;;16.44;65.53;101993.28;5023644;28;9095;-64
2022/05/17 04:38:18;;;;;;;;;2.00;2.00;;;;;16.46;65.45;101993.09;5028862;28;9014;-65
2022/05/17 04:40:44;;;;;;;;;2.67;2.67;;;;;16.47;65.25;101990.16;5028798;28;9049;-65
2022/05/17 04:43:11;;;;;;;;;3.00;3.00;;;;;16.49;65.24;101995.41;5025100;28;9086;-65
2022/05/17 04:45:38;;;;;;;;;2.67;2.67;;;;;16.50;65.32;102011.50;5027194;28;8936;-66
2022/05/17 04:48:05;;;;;;;;;3.00;2.75;;;;;16.49;65.07;102006.28;5034485;28;8927;-64
2022/05/17 04:50:31;;;;;;;;;8.33;2.67;;;;;16.49;65.28;102019.88;5033520;28;8848;-65
2022/05/17 04:52:58;;;;;;;;;2.00;2.00;;;;;16.49;65.06;102020.72;5038461;28;9083;-65
2022/05/17 04:55:25;;;;;;;;;4.00;3.33;;;;;16.49;65.13;102017.16;5032316;28;8915;-66
2022/05/17 04:57:52;;;;;;;;;4.67;4.00;;;;;16.48;65.17;102021.72;5032472;28;9219;-65
2022/05/17 05:00:22;;;;;;;;;3.33;2.67;;;;;16.49;65.25;102023.44;5030779;28;9318;-67
2022/05/17 05:02:50;;;;;;;;;2.67;2.67;;;;;16.49;65.14;102017.16;5035794;28;9931;-65
2022/05/17 05:05:17;;;;;;;;;3.00;3.00;;;;;16.49;64.89;102026.16;5032943;28;9814;-65
2022/05/17 05:07:45;;;;;;;;;3.00;3.00;;;;;16.51;65.12;102025.94;5031281;28;9154;-65
2022/05/17 05:10:12;;;;;;;;;3.33;3.00;;;;;16.50;65.56;102024.25;5034389;28;9072;-66
2022/05/17 05:12:39;;;;;;;;;6.00;5.00;;;;;16.52;65.64;102027.59;5037683;28;9053;-66
2022/05/17 05:15:06;;;;;;;;;3.00;3.00;;;;;16.54;65.49;102037.22;5033154;28;9067;-64
2022/05/17 05:17:34;;;;;;;;;3.00;3.00;;;;;16.54;65.65;102025.53;5033084;28;9169;-63
2022/05/17 05:20:01;;;;;;;;;2.33;2.00;;;;;16.56;65.51;102032.41;5022339;28;9097;-65
2022/05/17 05:22:30;;;;;;;;;2.00;2.00;;;;;16.57;65.96;102030.56;5026612;28;9082;-62
2022/05/17 05:24:57;;;;;;;;;2.33;2.33;;;;;16.59;65.54;102027.63;5032839;28;9074;-63
2022/05/17 05:27:23;;;;;;;;;3.00;3.00;;;;;16.57;65.71;102038.72;5033286;28;9003;-62
2022/05/17 05:29:50;;;;;;;;;6.67;2.00;;;;;16.56;65.58;102035.13;5031858;28;9154;-62
2022/05/17 05:32:16;;;;;;;;;6.00;4.33;;;;;16.58;65.53;102039.56;5030488;28;9221;-64
2022/05/17 05:34:43;;;;;;;;;1.67;1.67;;;;;16.59;65.65;102044.78;5031658;28;9210;-66
2022/05/17 05:37:09;;;;;;;;;4.00;4.00;;;;;16.59;65.41;102036.63;5032796;28;9154;-65
2022/05/17 05:39:36;;;;;;;;;1.00;1.00;;;;;16.60;65.34;102045.59;5032718;28;9290;-65
2022/05/17 05:42:04;;;;;;;;;3.00;3.00;;;;;16.59;65.16;102052.94;5039022;28;8905;-64
2022/05/17 05:44:34;;;;;;;;;5.33;3.00;;;;;16.60;65.34;102056.47;5032589;28;9009;-68
2022/05/17 05:47:04;;;;;;;;;2.00;2.00;;;;;16.60;65.16;102051.88;5051928;28;9059;-64
2022/05/17 05:49:31;;;;;;;;;4.33;4.00;;;;;16.58;65.12;102050.44;5043357;28;8997;-65
2022/05/17 05:51:57;;;;;;;;;2.00;1.67;;;;;16.58;64.81;102058.59;5033812;28;9236;-65
2022/05/17 05:54:23;;;;;;;;;2.67;2.00;;;;;16.59;64.99;102055.66;5031853;28;9000;-65
2022/05/17 05:56:50;;;;;;;;;4.33;2.33;;;;;16.60;64.74;102051.88;5032507;28;8994;-66
2022/05/17 05:59:16;;;;;;;;;1.67;1.67;;;;;16.64;64.66;102055.84;5036901;28;8990;-66
2022/05/17 06:01:44;;;;;;;;;0.67;0.67;;;;;16.66;64.56;102053.78;5032764;28;8882;-64
2022/05/17 06:04:12;;;;;;;;;2.00;2.00;;;;;16.69;64.22;102056.09;5032339;28;8933;-65
2022/05/17 06:06:40;;;;;;;;;2.00;2.00;;;;;16.70;63.79;102055.06;5031178;28;8898;-65
2022/05/17 06:09:06;;;;;;;;;1.00;1.00;;;;;16.70;63.63;102054.22;5029310;28;9698;-65
2022/05/17 06:11:33;;;;;;;;;0.00;0.00;;;;;16.73;63.49;102051.97;5031455;28;8902;-66
2022/05/17 06:14:00;;;;;;;;;0.75;0.00;;;;;16.75;63.00;102052.59;5030627;28;8847;-66
2022/05/17 06:16:26;;;;;;;;;2.00;1.00;;;;;16.74;62.93;102047.38;5030897;28;8804;-65
2022/05/17 06:18:53;;;;;;;;;1.00;0.75;;;;;16.76;62.89;102050.69;5031430;28;9610;-65
2022/05/17 06:21:19;;;;;;;;;0.75;0.75;;;;;16.78;62.40;102051.34;5032821;28;8829;-67
2022/05/17 06:23:46;;;;;;;;;2.75;1.75;;;;;16.80;62.38;102063.69;5028091;28;8821;-64
2022/05/17 06:26:13;;;;;;;;;1.00;1.00;;;;;16.84;61.95;102049.66;5031163;28;9494;-65
2022/05/17 06:28:40;;;;;;;;;0.00;0.00;;;;;16.88;61.64;102057.22;5040530;28;8940;-67
2022/05/17 06:31:06;;;;;;;;;0.67;0.00;;;;;16.92;61.29;102063.06;5033895;28;9518;-65
2022/05/17 06:33:33;;;;;;;;;0.75;0.00;;;;;16.91;61.17;102062.25;5031303;28;9058;-66
2022/05/17 06:35:59;;;;;;;;;1.25;1.25;;;;;16.93;60.74;102056.59;5038457;28;8842;-66
2022/05/17 06:38:26;;;;;;;;;0.25;0.25;;;;;16.91;60.93;102064.13;5051147;28;8825;-68
2022/05/17 06:40:52;;;;;;;;;0.50;0.00;;;;;16.90;60.63;102054.31;5029828;28;8817;-66
2022/05/17 06:43:19;;;;;;;;;1.00;0.00;;;;;16.94;60.30;102061.00;5022603;28;8824;-66
2022/05/17 06:45:45;;;;;;;;;3.00;0.00;;;;;17.12;62.16;102065.81;5027174;28;8848;-67
2022/05/17 06:48:12;;;;;;;;;0.75;0.75;;;;;17.21;60.89;102061.84;5027156;28;9649;-68
2022/05/17 06:50:38;;;;;;;;;1.00;1.00;;;;;17.21;59.94;102065.41;5025789;28;8921;-67
2022/05/17 06:53:07;;;;;;;;;1.00;1.00;;;;;17.17;60.05;102066.88;5011579;28;8852;-65
2022/05/17 06:55:33;;;;;;;;;0.00;0.00;;;;;17.16;59.93;102070.63;5026086;28;8924;-67
2022/05/17 06:58:01;;;;;;;;;0.75;0.25;;;;;17.13;60.06;102068.34;5027841;28;8825;-67
2022/05/17 07:00:28;;;;;;;;;0.00;0.00;;;;;17.14;59.89;102071.91;5025668;28;8865;-67
2022/05/17 07:02:54;;;;;;;;;1.75;1.75;;;;;17.11;59.66;102064.16;5027973;28;9536;-67
2022/05/17 07:05:21;;;;;;;;;1.00;0.00;;;;;17.09;59.96;102071.69;5025643;28;8852;-67
2022/05/17 07:07:48;;;;;;;;;0.50;0.50;;;;;17.07;59.74;102063.72;5026989;28;8824;-66
2022/05/17 07:13:08;;;;;;;;;1.00;0.50;;;;;16.98;59.56;102054.09;5026382;28;8903;-66
2022/05/17 07:15:40;;;;;;;;;0.75;0.75;;;;;16.93;59.63;102053.88;5025093;28;8947;-67
2022/05/17 07:18:08;;;;;;;;;0.50;0.50;;;;;16.96;59.69;102051.56;5023211;28;8851;-67
2022/05/17 07:20:35;;;;;;;;;1.75;0.50;;;;;16.98;59.82;102062.25;5024970;28;8824;-67
2022/05/17 07:23:03;;;;;;;;;0.25;0.00;;;;;17.01;59.69;102064.56;5024951;28;8858;-67
2022/05/17 07:25:32;;;;;;;;;0.00;0.00;;;;;17.03;59.70;102057.03;5018545;28;8831;-65
2022/05/17 07:27:59;;;;;;;;;0.00;0.00;;;;;17.09;59.68;102072.50;5026800;28;8821;-66
2022/05/17 07:30:26;;;;;;;;;0.00;0.00;;;;;17.12;59.65;102074.00;5026277;28;8827;-68
2022/05/17 07:32:53;;;;;;;;;0.75;0.00;;;;;17.15;59.23;102077.13;5025215;28;8848;-66
2022/05/17 07:35:21;;;;;;;;;0.00;0.00;;;;;17.20;59.69;102077.34;5025286;28;8930;-67
2022/05/17 07:37:48;;;;;;;;;0.75;0.75;;;;;17.25;59.75;102074.00;5027446;28;8824;-65
2022/05/17 07:40:16;;;;;;;;;0.00;0.00;;;;;17.27;59.76;102078.19;5017914;28;8913;-66
2022/05/17 07:42:48;;;;;;;;;0.00;0.00;;;;;17.29;60.29;102078.81;5027598;28;8937;-67
2022/05/17 07:45:15;;;;;;;;;2.00;0.00;;;;;17.30;60.44;102079.66;5020147;28;8882;-65
2022/05/17 07:47:42;;;;;;;;;0.00;0.00;;;;;17.27;60.85;102085.53;5025550;28;8958;-66
2022/05/17 07:50:09;;;;;;;;;0.00;0.00;;;;;17.27;60.74;102085.53;5024961;28;8836;-65
2022/05/17 07:52:36;;;;;;;;;2.50;1.25;;;;;17.25;61.34;102087.59;5021728;28;8847;-65
2022/05/17 07:55:04;;;;;;;;;1.00;1.00;;;;;17.21;62.12;102092.63;5026513;28;8910;-67
2022/05/17 07:57:31;;;;;;;;;1.00;1.00;;;;;17.17;62.11;102098.69;5024553;28;8844;-65
2022/05/17 07:59:57;;;;;;;;;0.00;0.00;;;;;17.15;62.37;102098.06;5024681;28;8836;-66
2022/05/17 08:02:24;;;;;;;;;0.00;0.00;;;;;17.14;62.47;102096.41;5027065;28;8914;-66
2022/05/17 08:04:50;;;;;;;;;2.75;0.00;;;;;17.17;62.80;102104.97;5025771;28;8816;-67
2022/05/17 08:07:17;;;;;;;;;0.00;0.00;;;;;17.22;63.18;102094.31;5021323;28;8832;-65
2022/05/17 08:09:44;;;;;;;;;0.00;0.00;;;;;17.26;63.05;102084.69;5019269;28;8828;-66
2022/05/17 08:12:17;;;;;;;;;1.25;1.00;;;;;17.29;63.59;102097.84;5023943;28;8851;-66
2022/05/17 08:14:45;;;;;;;;;1.00;1.00;;;;;17.32;63.59;102098.50;5024163;28;8813;-67
2022/05/17 08:17:11;;;;;;;;;0.00;0.00;;;;;17.33;64.23;102105.63;5027310;28;8914;-66
2022/05/17 08:19:39;;;;;;;;;1.50;0.25;;;;;17.33;64.10;102113.78;5026034;28;8824;-66
2022/05/17 08:22:07;;;;;;;;;0.00;0.00;;;;;17.34;64.68;102116.31;5025268;28;9155;-67
2022/05/17 08:27:37;;;;;;;;;0.50;0.50;;;;;17.29;64.37;102108.75;5025488;28;8840;-65
2022/05/17 08:30:08;;;;;;;;;1.25;1.00;;;;;17.29;64.75;102106.03;5021237;28;8836;-65
2022/05/17 08:35:20;;;;;;;;;1.00;0.75;;;;;17.23;65.46;102119.66;5027028;28;8816;-65
2022/05/17 08:37:48;;;;;;;;;0.75;0.25;;;;;17.21;66.00;102117.09;5026613;28;8922;-66
2022/05/17 08:40:19;;;;;;;;;1.00;1.00;;;;;17.19;66.02;102110.22;5026401;28;8825;-65
2022/05/17 08:43:14;;;;;;;;;0.25;0.25;;;;;17.17;66.49;102109.56;5028353;28;8832;-64
2022/05/17 08:46:05;;;;;;;;;1.25;1.25;;;;;17.09;67.19;102107.03;5026840;28;8914;-65
2022/05/17 08:48:52;;;;;;;;;0.00;0.00;;;;;17.08;67.14;102105.38;5023701;28;8846;-65
2022/05/17 08:51:59;;;;;;;;;1.00;1.00;;;;;17.09;67.59;102097.00;5027725;28;8836;-66
2022/05/17 08:54:30;;;;;;;;;2.25;0.25;;;;;17.08;67.63;102094.50;5022903;28;8848;-65
2022/05/17 08:57:24;;;;;;;;;1.00;1.00;;;;;17.09;67.54;102099.72;5021655;28;9637;-65
2022/05/17 08:59:50;;;;;;;;;0.25;0.25;;;;;17.06;67.77;102100.16;5015851;28;8864;-64
2022/05/17 09:02:29;;;;;;;;;1.75;1.00;;;;;17.02;67.92;102094.28;5023574;28;8914;-67
2022/05/17 09:05:11;;;;;;;;;1.75;1.25;;;;;17.03;67.93;102092.41;5025859;28;9552;-67
2022/05/17 09:07:44;;;;;;;;;1.25;1.00;;;;;17.02;68.37;102097.00;5024101;28;8813;-66
2022/05/17 09:10:27;;;;;;;;;2.00;2.00;;;;;17.03;69.01;102093.22;5023205;28;8833;-65
2022/05/17 09:12:59;;;;;;;;;3.00;2.00;;;;;17.05;68.73;102093.00;5025633;28;8839;-65
2022/05/17 09:15:25;;;;;;;;;2.00;2.00;;;;;17.09;68.87;102096.16;5023622;28;9079;-65
2022/05/17 09:17:53;;;;;;;;;1.25;1.00;;;;;17.11;68.73;102102.25;5026036;28;8895;-65
2022/05/17 09:20:26;;;;;;;;;2.00;2.00;;;;;17.10;68.94;102100.59;5025683;28;8905;-65
2022/05/17 09:22:52;;;;;;;;;1.67;1.67;;;;;17.07;68.97;102111.88;5027140;28;8848;-65
2022/05/17 09:25:25;;;;;;;;;3.00;3.00;;;;;17.15;68.85;102108.97;5025084;28;8928;-65
2022/05/17 09:27:53;;;;;;;;;1.75;1.75;;;;;17.22;68.94;102113.38;5024740;28;8840;-65
2022/05/17 09:30:22;;;;;;;;;1.50;1.50;;;;;17.36;69.26;102108.75;5028256;28;8906;-65
2022/05/17 09:33:01;;;;;;;;;3.00;3.00;;;;;17.54;68.83;102111.72;5026077;28;8908;-65
2022/05/17 09:35:28;;;;;;;;;2.00;2.00;;;;;17.68;68.54;102115.25;5023963;28;8959;-65
2022/05/17 09:38:05;;;;;;;;;3.50;2.50;;;;;17.79;68.72;102111.09;5020302;28;8906;-65
2022/05/17 09:40:37;;;;;;;;;4.00;4.00;;;;;17.85;68.44;102110.25;5024086;28;8832;-65
2022/05/17 09:43:09;;;;;;;;;9.00;3.00;;;;;17.90;69.06;102113.16;5019986;28;9707;-64
2022/05/17 09:45:58;;;;;;;;;1.67;1.67;;;;;17.94;68.51;102108.13;5028546;28;8977;-65
2022/05/17 09:48:32;;;;;;;;;2.75;2.75;;;;;17.99;68.16;102103.72;5028618;28;9134;-66
2022/05/17 09:53:48;;;;;;;;;4.00;3.50;;;;;18.04;68.13;102105.81;5016185;28;8882;-65
2022/05/17 09:56:16;;;;;;;;;2.25;2.25;;;;;18.14;68.59;102103.47;5037678;28;9551;-64
2022/05/17 09:58:45;;;;;;;;;3.00;3.00;;;;;18.31;67.92;102106.59;5018418;28;8860;-64
2022/05/17 10:01:21;;;;;;;;;1.25;1.25;;;;;18.43;67.59;102104.88;5020602;28;8849;-64
2022/05/17 10:04:06;;;;;;;;;2.00;2.00;;;;;18.56;67.28;102095.78;5019715;28;8832;-63
2022/05/17 10:06:37;;;;;;;;;2.25;2.25;;;;;18.67;66.85;102095.09;5020059;28;8989;-68
2022/05/17 10:09:23;;;;;;;;;3.00;3.00;;;;;18.76;66.37;102095.72;5018183;28;8851;-64
2022/05/17 10:12:00;;;;;;;;;3.00;2.75;;;;;18.92;66.74;102094.34;5021691;28;9037;-63
2022/05/17 10:14:43;;;;;;;;;2.75;2.50;;;;;19.06;66.11;102093.22;5020740;28;8860;-65
2022/05/17 10:17:27;;;;;;;;;1.00;1.00;;;;;19.16;66.02;102095.47;5019401;28;8813;-67
2022/05/17 10:19:59;;;;;;;;;2.00;2.00;;;;;19.24;65.36;102103.38;5021313;28;8898;-66
2022/05/17 10:22:26;;;;;;;;;2.50;1.50;;;;;19.23;64.88;102099.81;5017631;28;8817;-66
2022/05/17 10:24:58;;;;;;;;;7.00;5.00;;;;;19.26;64.39;102102.09;5019788;28;8855;-66
2022/05/17 10:27:38;;;;;;;;;4.75;3.00;;;;;19.25;64.88;102092.25;5017292;28;11243;-66
2022/05/17 10:30:38;;;;;;;;;1.75;1.75;;;;;19.34;64.78;102081.06;5021032;28;8914;-66
2022/05/17 10:33:11;;;;;;;;;1.00;1.00;;;;;19.45;64.38;102088.53;5021148;28;8844;-67
2022/05/17 10:35:46;;;;;;;;;2.00;2.00;;;;;19.48;63.76;102080.72;5017314;28;8896;-66
2022/05/17 10:38:25;;;;;;;;;4.00;4.00;;;;;19.53;64.04;102085.53;5019799;28;8853;-67
2022/05/17 10:40:53;;;;;;;;;3.00;3.00;;;;;19.61;64.12;102082.53;5019273;28;8904;-66
2022/05/17 10:43:36;;;;;;;;;4.00;3.00;;;;;19.68;63.56;102077.00;5017701;28;8923;-66
2022/05/17 10:46:11;;;;;;;;;4.50;4.00;;;;;19.74;63.29;102076.13;5017085;28;9593;-66
2022/05/17 10:49:26;;;;;;;;;4.25;4.00;;;;;19.78;62.88;102071.03;5020319;28;8922;-66
2022/05/17 10:52:22;;;;;;;;;5.00;4.50;;;;;19.78;62.31;102071.88;5010482;28;8861;-67
2022/05/17 10:55:02;;;;;;;;;4.25;3.75;;;;;19.82;62.60;102064.06;5028175;28;8821;-67
2022/05/17 10:58:19;;;;;;;;;2.25;2.25;;;;;19.96;63.03;102073.78;5022805;28;8859;-66
2022/05/17 11:00:55;;;;;;;;;6.50;4.25;;;;;20.11;62.81;102063.31;4955160;28;8830;-66
2022/05/17 11:03:59;;;;;;;;;7.00;6.25;;;;;20.21;61.43;102060.03;5017810;28;9596;-65
2022/05/17 11:06:49;;;;;;;;;7.75;7.75;;;;;20.25;61.24;102056.63;5019482;28;8824;-66
2022/05/17 11:09:29;;;;;;;;;9.75;8.75;;;;;20.31;61.03;102051.31;5021051;28;9802;-66
2022/05/17 11:12:12;;;;;;;;;5.00;5.00;;;;;20.17;61.37;102042.41;5020470;28;8945;-66
2022/05/17 11:15:00;;;;;;;;;4.00;3.50;;;;;20.16;61.45;102038.84;5018715;28;8897;-66
2022/05/17 11:17:37;;;;;;;;;6.50;5.00;;;;;20.12;61.19;102040.38;5018626;28;8863;-66
2022/05/17 11:20:28;;;;;;;;;3.50;3.50;;;;;20.19;61.56;102034.81;5020893;28;8833;-66
2022/05/17 11:23:20;;;;;;;;;4.00;3.00;;;;;20.36;60.86;102032.28;5021332;28;8863;-67
2022/05/17 11:26:33;;;;;;;;;6.00;3.75;;;;;20.55;60.71;102041.34;5020453;28;8963;-66
2022/05/17 11:29:35;;;;;;;;;6.50;6.50;;;;;20.53;60.57;102033.34;5021045;28;8847;-65
2022/05/17 11:32:31;;;;;;;;;3.00;3.00;;;;;20.63;60.56;102041.84;5017161;28;8838;-66
2022/05/17 11:35:04;;;;;;;;;2.75;2.75;;;;;20.77;60.07;102033.44;5016739;28;8846;-66
2022/05/17 11:37:38;;;;;;;;;3.50;3.50;;;;;20.82;59.84;102030.81;5015211;28;8840;-67
2022/05/17 11:40:10;;;;;;;;;5.50;5.50;;;;;20.95;58.74;102027.91;5021263;28;8829;-67
2022/05/17 11:45:51;;;;;;;;;4.00;4.00;;;;;20.96;58.56;102024.09;5018275;28;8966;-67
2022/05/17 11:48:20;;;;;;;;;4.00;4.00;;;;;21.00;58.18;102022.56;5018867;28;8804;-66
2022/05/17 11:50:51;;;;;;;;;4.25;4.00;;;;;21.06;57.87;102015.28;5017499;28;8983;-66
2022/05/17 11:53:24;;;;;;;;;8.25;7.75;;;;;21.04;57.08;102012.81;5018612;28;8914;-65
2022/05/17 11:56:12;;;;;;;;;7.50;4.75;;;;;21.08;57.99;102014.00;5022790;28;8931;-66
2022/05/17 11:58:41;;;;;;;;;5.00;5.00;;;;;21.13;56.92;102002.34;5015557;28;9541;-66
2022/05/17 12:01:26;;;;;;;;;7.50;7.50;;;;;21.02;56.45;102006.72;5018316;28;8817;-66
2022/05/17 12:03:56;;;;;;;;;5.50;4.50;;;;;20.85;57.20;102008.47;5020386;28;8816;-66
2022/05/17 12:06:47;;;;;;;;;6.75;6.50;;;;;20.75;57.18;102006.31;5018349;28;8997;-66
2022/05/17 12:09:23;;;;;;;;;4.25;3.50;;;;;20.78;57.58;101999.53;5019410;28;8906;-66